createdAt,value
2023-04-03T00:01:39.449Z,5.20
2023-04-03T00:06:42.742Z,5.03
2023-04-03T00:11:44.360Z,5.08
2023-04-03T00:16:46.090Z,5.03
2023-04-03T00:21:49.140Z,4.76
2023-04-03T00:26:50.737Z,5.00
2023-04-03T00:31:52.468Z,4.96
2023-04-03T00:36:55.689Z,4.84
2023-04-03T00:41:57.497Z,4.92
2023-04-03T00:46:59.360Z,5.08
2023-04-03T00:52:02.776Z,4.90
2023-04-03T00:57:05.551Z,4.80
2023-04-03T01:02:07.600Z,4.90
2023-04-03T01:07:13.530Z,4.94
2023-04-03T01:12:16.390Z,4.87
2023-04-03T01:17:29.982Z,5.02
2023-04-03T01:22:42.935Z,4.89
2023-04-03T01:27:44.585Z,4.68
2023-04-03T01:32:47.651Z,5.09
2023-04-03T01:37:49.346Z,4.92
2023-04-03T01:42:51.087Z,4.82
2023-04-03T01:47:55.414Z,5.00
2023-04-03T01:52:57.502Z,4.80
2023-04-03T01:57:59.492Z,4.86
2023-04-03T02:03:02.698Z,4.94
2023-04-03T02:08:04.860Z,4.75
2023-04-03T02:13:06.820Z,5.07
2023-04-03T02:18:09.932Z,4.68
2023-04-03T02:23:11.598Z,4.84
2023-04-03T02:28:13.262Z,4.84
2023-04-03T02:33:16.316Z,4.96
2023-04-03T02:38:17.957Z,4.98
2023-04-03T02:43:19.671Z,4.88
2023-04-03T02:48:23.052Z,5.06
2023-04-03T02:53:24.921Z,5.02
2023-04-03T02:58:26.590Z,4.92
2023-04-03T03:03:29.582Z,4.89
2023-04-03T03:08:31.206Z,4.99
2023-04-03T03:13:32.907Z,5.18
2023-04-03T03:18:36.602Z,4.82
2023-04-03T03:23:38.279Z,4.99
2023-04-03T03:28:40.750Z,4.77
2023-04-03T03:33:43.910Z,4.88
2023-04-03T03:38:48.383Z,4.80
2023-04-03T03:43:50.087Z,4.87
2023-04-03T03:48:53.079Z,4.84
2023-04-03T03:53:54.703Z,4.99
2023-04-03T03:58:56.403Z,4.75
2023-04-03T04:03:59.518Z,4.65
2023-04-03T04:09:01.191Z,4.69
2023-04-03T04:14:02.880Z,4.33
2023-04-03T04:19:07.707Z,4.24
2023-04-03T04:24:10.753Z,4.34
2023-04-03T04:29:12.621Z,4.27
2023-04-03T04:34:15.988Z,3.94
2023-04-03T04:39:17.627Z,3.82
2023-04-03T04:44:19.319Z,3.64
2023-04-03T04:49:22.331Z,3.73
2023-04-03T04:54:24.082Z,3.95
2023-04-03T04:59:25.895Z,3.50
2023-04-03T05:04:29.108Z,3.47
2023-04-03T05:09:30.746Z,3.47
2023-04-03T05:14:32.501Z,3.42
2023-04-03T05:19:35.504Z,3.65
2023-04-03T05:24:37.155Z,3.45
2023-04-03T05:29:38.836Z,3.61
2023-04-03T05:34:41.961Z,3.55
2023-04-03T05:39:43.581Z,5.07
2023-04-03T05:44:45.269Z,5.85
2023-04-03T05:49:48.473Z,8.90
2023-04-03T05:54:50.171Z,11.04
2023-04-03T05:59:51.936Z,12.93
2023-04-03T06:04:58.049Z,14.12
2023-04-03T06:10:00.023Z,14.74
2023-04-03T06:15:01.684Z,15.09
2023-04-03T06:20:05.917Z,15.81
2023-04-03T06:25:08.539Z,16.25
2023-04-03T06:30:10.654Z,16.61
2023-04-03T06:35:13.675Z,13.56
2023-04-03T06:40:20.513Z,14.14
2023-04-03T06:45:22.098Z,15.01
2023-04-03T06:50:25.212Z,16.57
2023-04-03T06:55:26.859Z,17.99
2023-04-03T07:00:28.700Z,18.42
2023-04-03T07:05:31.981Z,18.23
2023-04-03T07:10:42.827Z,14.18
2023-04-03T07:15:44.692Z,16.70
2023-04-03T07:20:47.989Z,12.21
2023-04-03T07:25:51.096Z,17.48
2023-04-03T07:30:54.927Z,17.21
2023-04-03T07:35:57.953Z,15.43
2023-04-03T07:40:59.572Z,13.18
2023-04-03T07:46:01.375Z,13.39
2023-04-03T07:51:05.602Z,12.70
2023-04-03T07:56:07.502Z,11.04
2023-04-03T08:01:09.110Z,9.32
2023-04-03T08:06:16.008Z,10.03
2023-04-03T08:11:18.333Z,10.82
2023-04-03T08:16:23.365Z,10.31
2023-04-03T08:21:26.619Z,9.80
2023-04-03T08:26:28.386Z,9.93
2023-04-03T08:31:30.210Z,9.85
2023-04-03T08:36:33.480Z,10.01
2023-04-03T08:41:37.325Z,10.34
2023-04-03T08:46:53.817Z,9.73
2023-04-03T08:51:58.899Z,10.68
2023-04-03T08:57:04.494Z,10.38
2023-04-03T09:02:24.423Z,10.27
2023-04-03T09:07:36.791Z,10.18
2023-04-03T09:12:42.037Z,10.33
2023-04-03T09:17:54.269Z,9.87
2023-04-03T09:22:58.584Z,9.63
2023-04-03T09:28:00.896Z,9.91
2023-04-03T09:33:02.668Z,9.26
2023-04-03T09:38:21.540Z,9.53
2023-04-03T09:43:27.357Z,8.81
2023-04-03T09:48:29.240Z,8.67
2023-04-03T09:53:37.801Z,8.50
2023-04-03T09:58:49.859Z,9.32
2023-04-03T10:04:05.648Z,8.72
2023-04-03T10:09:18.829Z,8.77
2023-04-03T10:14:20.494Z,9.44
2023-04-03T10:19:35.018Z,9.53
2023-04-03T10:24:48.540Z,9.06
2023-04-03T10:29:56.094Z,9.85
2023-04-03T10:35:09.105Z,10.12
2023-04-03T10:40:23.323Z,10.05
2023-04-03T10:45:29.686Z,9.91
2023-04-03T10:50:40.781Z,9.47
2023-04-03T10:55:51.909Z,9.96
2023-04-03T11:00:57.567Z,9.80
2023-04-03T11:06:00.698Z,10.01
2023-04-03T11:11:08.036Z,9.38
2023-04-03T11:16:09.982Z,9.67
2023-04-03T11:21:20.381Z,9.45
2023-04-03T11:26:28.303Z,9.60
2023-04-03T11:31:48.625Z,9.01
2023-04-03T11:36:54.920Z,9.41
2023-04-03T11:42:15.684Z,10.04
2023-04-03T11:47:45.576Z,9.97
2023-04-03T11:53:02.477Z,9.51
2023-04-03T11:58:15.299Z,9.33
2023-04-03T12:04:01.849Z,9.57
2023-04-03T12:09:24.258Z,9.73
2023-04-03T12:14:28.740Z,9.12
2023-04-03T12:19:42.373Z,9.21
2023-04-03T12:24:45.992Z,9.33
2023-04-03T12:29:55.273Z,9.44
2023-04-03T12:35:08.575Z,8.99
2023-04-03T12:40:17.911Z,9.01
2023-04-03T12:45:23.016Z,8.58
2023-04-03T12:50:28.166Z,8.82
2023-04-03T12:55:29.864Z,8.90
2023-04-03T13:00:36.752Z,8.65
2023-04-03T13:05:39.689Z,9.15
2023-04-03T13:10:51.009Z,9.30
2023-04-03T13:15:54.555Z,9.04
2023-04-03T13:21:04.063Z,8.86
2023-04-03T13:26:06.758Z,8.97
2023-04-03T13:31:20.215Z,9.19
2023-04-03T13:36:24.229Z,8.85
2023-04-03T13:41:30.083Z,9.20
2023-04-03T13:46:33.353Z,8.90
2023-04-03T13:51:39.990Z,9.02
2023-04-03T13:56:42.093Z,9.08
2023-04-03T14:01:49.102Z,9.10
2023-04-03T14:06:51.116Z,8.35
2023-04-03T14:11:55.657Z,8.71
2023-04-03T14:17:01.638Z,8.79
2023-04-03T14:22:13.950Z,9.11
2023-04-03T14:27:19.439Z,8.79
2023-04-03T14:32:25.012Z,8.49
2023-04-03T14:37:29.531Z,8.95
2023-04-03T14:42:33.587Z,8.51
2023-04-03T14:47:41.792Z,8.69
2023-04-03T14:52:44.777Z,8.56
2023-04-03T14:57:46.944Z,8.87
2023-04-03T15:02:50.499Z,8.74
2023-04-03T15:07:55.906Z,8.59
2023-04-03T15:12:58.727Z,8.35
2023-04-03T15:18:01.997Z,8.52
2023-04-03T15:23:03.811Z,8.63
2023-04-03T15:28:05.719Z,8.33
2023-04-03T15:33:08.848Z,8.47
2023-04-03T15:38:11.105Z,8.57
2023-04-03T15:43:12.832Z,8.32
2023-04-03T15:48:16.491Z,8.51
2023-04-03T15:53:18.194Z,8.66
2023-04-03T15:58:19.883Z,8.53
2023-04-03T16:03:23.305Z,8.33
2023-04-03T16:08:25.145Z,8.26
2023-04-03T16:13:27.052Z,8.42
2023-04-03T16:18:30.722Z,8.42
2023-04-03T16:23:32.470Z,8.50
2023-04-03T16:28:34.129Z,8.37
2023-04-03T16:33:37.503Z,8.20
2023-04-03T16:38:39.154Z,8.32
2023-04-03T16:48:43.941Z,8.27
2023-04-03T16:53:47.358Z,8.37
2023-04-03T16:58:49.125Z,8.44
2023-04-03T17:03:52.400Z,8.25
2023-04-03T17:08:54.263Z,8.05
2023-04-03T17:13:56.033Z,8.32
2023-04-03T17:18:59.249Z,7.95
2023-04-03T17:24:04.241Z,8.09
2023-04-03T17:29:07.735Z,7.96
2023-04-03T17:34:11.225Z,8.03
2023-04-03T17:39:13.598Z,7.81
2023-04-03T17:44:15.593Z,8.00
2023-04-03T17:49:18.923Z,7.85
2023-04-03T17:54:20.606Z,7.85
2023-04-03T17:59:22.470Z,7.74
2023-04-03T18:04:25.847Z,7.46
2023-04-03T18:09:31.502Z,7.39
2023-04-03T18:14:35.291Z,7.92
2023-04-03T18:19:38.448Z,7.43
2023-04-03T18:24:41.053Z,7.08
2023-04-03T18:29:44.955Z,7.17
2023-04-03T18:34:48.121Z,7.25
2023-04-03T18:39:49.940Z,6.83
2023-04-03T18:44:55.177Z,6.72
2023-04-03T18:49:58.689Z,7.11
2023-04-03T18:55:00.395Z,6.87
2023-04-03T19:00:02.301Z,6.49
2023-04-03T19:05:07.578Z,6.19
2023-04-03T19:10:10.455Z,5.77
2023-04-03T19:15:13.065Z,5.51
2023-04-03T19:20:16.410Z,5.60
2023-04-03T19:25:18.235Z,5.49
2023-04-03T19:30:20.122Z,5.07
2023-04-03T19:35:23.198Z,5.02
2023-04-03T19:40:25.292Z,4.73
2023-04-03T19:45:27.182Z,4.78
2023-04-03T19:50:30.162Z,4.53
2023-04-03T19:55:31.792Z,4.50
2023-04-03T20:00:33.523Z,4.24
2023-04-03T20:05:36.873Z,4.14
2023-04-03T20:10:38.710Z,3.95
2023-04-03T20:15:41.832Z,3.89
2023-04-03T20:20:45.393Z,3.74
2023-04-03T20:26:01.463Z,3.81
2023-04-03T20:31:08.163Z,3.66
2023-04-03T20:36:11.313Z,3.49
2023-04-03T20:41:13.422Z,3.60
2023-04-03T20:46:15.495Z,3.67
2023-04-03T20:51:20.118Z,3.44
2023-04-03T20:56:21.798Z,3.43
2023-04-03T21:01:24.385Z,3.38
2023-04-03T21:07:04.683Z,3.28
2023-04-03T21:12:43.434Z,3.19
2023-04-03T21:18:16.076Z,3.27
2023-04-03T21:23:17.832Z,3.73
2023-04-03T21:28:19.590Z,3.95
2023-04-03T21:33:22.580Z,4.18
2023-04-03T21:38:24.266Z,3.79
2023-04-03T21:43:26.038Z,3.85
2023-04-03T21:48:29.179Z,4.00
2023-04-03T21:53:31.031Z,3.81
2023-04-03T21:58:33.331Z,3.58
2023-04-03T22:03:36.376Z,3.87
2023-04-03T22:08:38.431Z,3.62
2023-04-03T22:13:40.575Z,3.78
2023-04-03T22:18:43.589Z,3.51
2023-04-03T22:23:45.231Z,3.23
2023-04-03T22:28:47.345Z,3.62
2023-04-03T22:33:50.406Z,3.40
2023-04-03T22:38:52.092Z,3.20
2023-04-03T22:43:53.776Z,3.13
2023-04-03T22:48:56.765Z,3.08
2023-04-03T22:53:58.410Z,3.22
2023-04-03T22:59:00.261Z,3.80
2023-04-03T23:04:03.460Z,3.59
2023-04-03T23:09:05.272Z,3.15
2023-04-03T23:14:06.991Z,3.25
2023-04-03T23:19:09.987Z,2.81
2023-04-03T23:24:11.646Z,3.38
2023-04-03T23:29:13.327Z,3.13
2023-04-03T23:34:16.411Z,3.05
2023-04-03T23:39:18.089Z,2.68
2023-04-03T23:44:19.773Z,2.78
2023-04-03T23:49:22.833Z,2.97
2023-04-03T23:54:24.475Z,3.01
2023-04-03T23:59:26.303Z,2.73
